sensor_id;sensor_type;location;lat;lon;timestamp;P1;durP1;ratioP1;P2;durP2;ratioP2
57627;SDS011;43451;49.060;10.616;2024-03-25T00:00:32;7.80;;;2.63;;
57627;SDS011;43451;49.060;10.616;2024-03-25T00:02:59;5.00;;;2.63;;
57627;SDS011;43451;49.060;10.616;2024-03-25T00:05:25;5.35;;;2.47;;
57627;SDS011;43451;49.060;10.616;2024-03-25T00:07:51;5.30;;;2.78;;
57627;SDS011;43451;49.060;10.616;2024-03-25T00:10:17;5.88;;;2.63;;
57627;SDS011;43451;49.060;10.616;2024-03-25T00:12:45;3.50;;;2.28;;
57627;SDS011;43451;49.060;10.616;2024-03-25T00:15:11;5.65;;;2.63;;
57627;SDS011;43451;49.060;10.616;2024-03-25T00:17:37;4.53;;;2.50;;
57627;SDS011;43451;49.060;10.616;2024-03-25T00:20:02;5.88;;;2.55;;
57627;SDS011;43451;49.060;10.616;2024-03-25T00:22:31;4.45;;;2.53;;
57627;SDS011;43451;49.060;10.616;2024-03-25T00:24:56;5.22;;;2.60;;
57627;SDS011;43451;49.060;10.616;2024-03-25T00:27:22;5.63;;;2.40;;
57627;SDS011;43451;49.060;10.616;2024-03-25T00:29:47;4.35;;;2.50;;
57627;SDS011;43451;49.060;10.616;2024-03-25T00:32:13;6.10;;;2.58;;
57627;SDS011;43451;49.060;10.616;2024-03-25T00:34:40;3.50;;;2.70;;
57627;SDS011;43451;49.060;10.616;2024-03-25T00:37:05;4.43;;;2.58;;
57627;SDS011;43451;49.060;10.616;2024-03-25T00:39:31;4.35;;;2.72;;
57627;SDS011;43451;49.060;10.616;2024-03-25T00:42:00;4.55;;;2.70;;
57627;SDS011;43451;49.060;10.616;2024-03-25T00:44:25;4.38;;;2.58;;
57627;SDS011;43451;49.060;10.616;2024-03-25T00:46:51;5.38;;;2.60;;
57627;SDS011;43451;49.060;10.616;2024-03-25T00:49:17;4.40;;;2.45;;
57627;SDS011;43451;49.060;10.616;2024-03-25T00:51:43;5.78;;;2.60;;
57627;SDS011;43451;49.060;10.616;2024-03-25T00:54:08;6.97;;;2.65;;
57627;SDS011;43451;49.060;10.616;2024-03-25T00:56:34;4.00;;;2.35;;
57627;SDS011;43451;49.060;10.616;2024-03-25T00:59:00;4.70;;;2.55;;
57627;SDS011;43451;49.060;10.616;2024-03-25T01:01:30;5.57;;;2.78;;
57627;SDS011;43451;49.060;10.616;2024-03-25T01:03:56;4.97;;;2.65;;
57627;SDS011;43451;49.060;10.616;2024-03-25T01:06:22;5.28;;;2.60;;
57627;SDS011;43451;49.060;10.616;2024-03-25T01:08:47;4.90;;;2.80;;
57627;SDS011;43451;49.060;10.616;2024-03-25T01:11:13;4.93;;;2.28;;
57627;SDS011;43451;49.060;10.616;2024-03-25T01:13:38;3.75;;;2.58;;
57627;SDS011;43451;49.060;10.616;2024-03-25T01:16:06;4.32;;;2.63;;
57627;SDS011;43451;49.060;10.616;2024-03-25T01:18:32;4.47;;;2.30;;
57627;SDS011;43451;49.060;10.616;2024-03-25T01:20:58;7.63;;;2.65;;
57627;SDS011;43451;49.060;10.616;2024-03-25T01:23:23;3.45;;;2.33;;
57627;SDS011;43451;49.060;10.616;2024-03-25T01:25:48;4.22;;;2.58;;
57627;SDS011;43451;49.060;10.616;2024-03-25T01:28:14;4.20;;;2.85;;
57627;SDS011;43451;49.060;10.616;2024-03-25T01:30:40;3.28;;;2.30;;
57627;SDS011;43451;49.060;10.616;2024-03-25T01:33:05;6.80;;;3.10;;
57627;SDS011;43451;49.060;10.616;2024-03-25T01:35:31;4.05;;;2.65;;
57627;SDS011;43451;49.060;10.616;2024-03-25T01:37:57;3.97;;;2.58;;
57627;SDS011;43451;49.060;10.616;2024-03-25T01:40:22;6.28;;;2.60;;
57627;SDS011;43451;49.060;10.616;2024-03-25T01:42:58;3.42;;;2.58;;
57627;SDS011;43451;49.060;10.616;2024-03-25T01:45:25;5.82;;;2.63;;
57627;SDS011;43451;49.060;10.616;2024-03-25T01:47:52;5.60;;;2.42;;
57627;SDS011;43451;49.060;10.616;2024-03-25T01:50:18;4.35;;;3.45;;
57627;SDS011;43451;49.060;10.616;2024-03-25T01:52:44;4.15;;;2.60;;
57627;SDS011;43451;49.060;10.616;2024-03-25T01:55:11;4.82;;;2.55;;
57627;SDS011;43451;49.060;10.616;2024-03-25T01:57:42;3.72;;;2.40;;
57627;SDS011;43451;49.060;10.616;2024-03-25T02:00:09;3.10;;;2.13;;
57627;SDS011;43451;49.060;10.616;2024-03-25T02:02:35;4.30;;;2.20;;
57627;SDS011;43451;49.060;10.616;2024-03-25T02:05:06;5.47;;;2.80;;
57627;SDS011;43451;49.060;10.616;2024-03-25T02:07:32;4.30;;;2.42;;
57627;SDS011;43451;49.060;10.616;2024-03-25T02:10:02;3.65;;;2.20;;
57627;SDS011;43451;49.060;10.616;2024-03-25T02:12:31;4.82;;;2.47;;
57627;SDS011;43451;49.060;10.616;2024-03-25T02:14:58;3.50;;;2.20;;
57627;SDS011;43451;49.060;10.616;2024-03-25T02:17:24;4.18;;;2.20;;
57627;SDS011;43451;49.060;10.616;2024-03-25T02:19:50;7.65;;;2.70;;
57627;SDS011;43451;49.060;10.616;2024-03-25T02:22:16;3.35;;;2.20;;
57627;SDS011;43451;49.060;10.616;2024-03-25T02:24:42;7.32;;;2.40;;
57627;SDS011;43451;49.060;10.616;2024-03-25T02:27:11;3.85;;;2.35;;
57627;SDS011;43451;49.060;10.616;2024-03-25T02:29:40;6.45;;;2.53;;
57627;SDS011;43451;49.060;10.616;2024-03-25T02:32:07;4.72;;;2.45;;
57627;SDS011;43451;49.060;10.616;2024-03-25T02:34:39;5.53;;;2.40;;
57627;SDS011;43451;49.060;10.616;2024-03-25T02:37:10;2.85;;;2.30;;
57627;SDS011;43451;49.060;10.616;2024-03-25T02:39:36;6.88;;;2.45;;
57627;SDS011;43451;49.060;10.616;2024-03-25T02:42:02;4.90;;;2.50;;
57627;SDS011;43451;49.060;10.616;2024-03-25T02:44:28;4.45;;;2.38;;
57627;SDS011;43451;49.060;10.616;2024-03-25T02:46:54;6.13;;;2.85;;
57627;SDS011;43451;49.060;10.616;2024-03-25T02:49:20;4.60;;;2.35;;
57627;SDS011;43451;49.060;10.616;2024-03-25T02:51:46;5.72;;;2.60;;
57627;SDS011;43451;49.060;10.616;2024-03-25T02:54:11;5.15;;;2.45;;
57627;SDS011;43451;49.060;10.616;2024-03-25T02:56:37;5.70;;;2.47;;
57627;SDS011;43451;49.060;10.616;2024-03-25T02:59:02;6.13;;;2.28;;
57627;SDS011;43451;49.060;10.616;2024-03-25T03:01:28;3.97;;;2.67;;
57627;SDS011;43451;49.060;10.616;2024-03-25T03:03:54;6.22;;;2.90;;
57627;SDS011;43451;49.060;10.616;2024-03-25T03:06:19;4.97;;;2.67;;
57627;SDS011;43451;49.060;10.616;2024-03-25T03:08:45;3.72;;;2.45;;
57627;SDS011;43451;49.060;10.616;2024-03-25T03:11:10;6.80;;;2.33;;
57627;SDS011;43451;49.060;10.616;2024-03-25T03:13:36;5.35;;;2.50;;
57627;SDS011;43451;49.060;10.616;2024-03-25T03:16:01;3.45;;;2.40;;
57627;SDS011;43451;49.060;10.616;2024-03-25T03:18:27;6.43;;;2.20;;
57627;SDS011;43451;49.060;10.616;2024-03-25T03:20:53;4.15;;;2.67;;
57627;SDS011;43451;49.060;10.616;2024-03-25T03:23:21;6.30;;;2.70;;
57627;SDS011;43451;49.060;10.616;2024-03-25T03:25:47;4.65;;;2.80;;
57627;SDS011;43451;49.060;10.616;2024-03-25T03:28:13;6.05;;;2.78;;
57627;SDS011;43451;49.060;10.616;2024-03-25T03:30:40;5.00;;;2.72;;
57627;SDS011;43451;49.060;10.616;2024-03-25T03:33:05;6.35;;;2.80;;
57627;SDS011;43451;49.060;10.616;2024-03-25T03:35:34;5.55;;;2.60;;
57627;SDS011;43451;49.060;10.616;2024-03-25T03:37:59;4.10;;;2.45;;
57627;SDS011;43451;49.060;10.616;2024-03-25T03:40:25;6.95;;;3.20;;
57627;SDS011;43451;49.060;10.616;2024-03-25T03:42:50;5.47;;;3.47;;
57627;SDS011;43451;49.060;10.616;2024-03-25T03:45:16;4.55;;;2.90;;
57627;SDS011;43451;49.060;10.616;2024-03-25T03:47:42;4.75;;;2.83;;
57627;SDS011;43451;49.060;10.616;2024-03-25T03:50:09;4.93;;;2.90;;
57627;SDS011;43451;49.060;10.616;2024-03-25T03:52:35;5.45;;;2.92;;
57627;SDS011;43451;49.060;10.616;2024-03-25T03:55:00;4.75;;;2.53;;
57627;SDS011;43451;49.060;10.616;2024-03-25T03:57:26;4.65;;;2.78;;
57627;SDS011;43451;49.060;10.616;2024-03-25T03:59:51;5.43;;;2.83;;
57627;SDS011;43451;49.060;10.616;2024-03-25T04:02:17;7.53;;;2.60;;
57627;SDS011;43451;49.060;10.616;2024-03-25T04:04:43;4.50;;;2.67;;
57627;SDS011;43451;49.060;10.616;2024-03-25T04:07:09;4.90;;;2.80;;
57627;SDS011;43451;49.060;10.616;2024-03-25T04:09:35;5.30;;;2.70;;
57627;SDS011;43451;49.060;10.616;2024-03-25T04:12:00;6.72;;;2.85;;
57627;SDS011;43451;49.060;10.616;2024-03-25T04:14:26;4.82;;;2.63;;
57627;SDS011;43451;49.060;10.616;2024-03-25T04:16:52;4.68;;;2.78;;
57627;SDS011;43451;49.060;10.616;2024-03-25T04:19:19;4.28;;;2.60;;
57627;SDS011;43451;49.060;10.616;2024-03-25T04:21:45;6.05;;;2.80;;
57627;SDS011;43451;49.060;10.616;2024-03-25T04:24:11;6.82;;;2.70;;
57627;SDS011;43451;49.060;10.616;2024-03-25T04:26:37;5.30;;;3.00;;
57627;SDS011;43451;49.060;10.616;2024-03-25T04:29:02;7.72;;;3.20;;
57627;SDS011;43451;49.060;10.616;2024-03-25T04:31:28;5.10;;;2.83;;
57627;SDS011;43451;49.060;10.616;2024-03-25T04:33:53;7.85;;;2.90;;
57627;SDS011;43451;49.060;10.616;2024-03-25T04:36:19;6.57;;;3.03;;
57627;SDS011;43451;49.060;10.616;2024-03-25T04:38:44;5.85;;;2.97;;
57627;SDS011;43451;49.060;10.616;2024-03-25T04:41:10;6.57;;;2.78;;
57627;SDS011;43451;49.060;10.616;2024-03-25T04:43:35;5.72;;;3.13;;
57627;SDS011;43451;49.060;10.616;2024-03-25T04:46:01;6.85;;;3.35;;
57627;SDS011;43451;49.060;10.616;2024-03-25T04:48:26;5.38;;;3.13;;
57627;SDS011;43451;49.060;10.616;2024-03-25T04:50:55;4.72;;;2.50;;
57627;SDS011;43451;49.060;10.616;2024-03-25T04:53:21;5.68;;;2.72;;
57627;SDS011;43451;49.060;10.616;2024-03-25T04:55:46;6.00;;;2.85;;
57627;SDS011;43451;49.060;10.616;2024-03-25T04:58:12;5.03;;;2.95;;
57627;SDS011;43451;49.060;10.616;2024-03-25T05:00:37;6.32;;;2.70;;
57627;SDS011;43451;49.060;10.616;2024-03-25T05:03:03;6.53;;;2.80;;
57627;SDS011;43451;49.060;10.616;2024-03-25T05:05:29;6.63;;;3.30;;
57627;SDS011;43451;49.060;10.616;2024-03-25T05:07:54;5.03;;;2.85;;
57627;SDS011;43451;49.060;10.616;2024-03-25T05:10:20;5.85;;;3.03;;
57627;SDS011;43451;49.060;10.616;2024-03-25T05:12:46;4.43;;;2.78;;
57627;SDS011;43451;49.060;10.616;2024-03-25T05:15:14;6.72;;;3.05;;
57627;SDS011;43451;49.060;10.616;2024-03-25T05:17:40;6.70;;;2.92;;
57627;SDS011;43451;49.060;10.616;2024-03-25T05:20:06;4.93;;;3.08;;
57627;SDS011;43451;49.060;10.616;2024-03-25T05:22:31;4.05;;;2.90;;
57627;SDS011;43451;49.060;10.616;2024-03-25T05:24:57;9.85;;;3.40;;
57627;SDS011;43451;49.060;10.616;2024-03-25T05:27:22;6.30;;;3.00;;
57627;SDS011;43451;49.060;10.616;2024-03-25T05:29:48;5.13;;;2.90;;
57627;SDS011;43451;49.060;10.616;2024-03-25T05:32:14;4.35;;;2.55;;
57627;SDS011;43451;49.060;10.616;2024-03-25T05:34:41;6.47;;;3.30;;
57627;SDS011;43451;49.060;10.616;2024-03-25T05:37:07;6.88;;;3.30;;
57627;SDS011;43451;49.060;10.616;2024-03-25T05:39:32;7.45;;;3.10;;
57627;SDS011;43451;49.060;10.616;2024-03-25T05:41:58;7.03;;;3.00;;
57627;SDS011;43451;49.060;10.616;2024-03-25T05:44:23;6.38;;;3.22;;
57627;SDS011;43451;49.060;10.616;2024-03-25T05:46:49;6.25;;;2.95;;
57627;SDS011;43451;49.060;10.616;2024-03-25T05:49:14;8.90;;;3.33;;
57627;SDS011;43451;49.060;10.616;2024-03-25T05:51:40;8.38;;;2.90;;
57627;SDS011;43451;49.060;10.616;2024-03-25T05:54:05;5.00;;;3.00;;
57627;SDS011;43451;49.060;10.616;2024-03-25T05:56:30;6.30;;;3.20;;
57627;SDS011;43451;49.060;10.616;2024-03-25T05:58:56;8.18;;;3.15;;
57627;SDS011;43451;49.060;10.616;2024-03-25T06:01:22;9.75;;;3.30;;
57627;SDS011;43451;49.060;10.616;2024-03-25T06:03:48;8.18;;;3.63;;
57627;SDS011;43451;49.060;10.616;2024-03-25T06:06:14;6.78;;;3.80;;
57627;SDS011;43451;49.060;10.616;2024-03-25T06:08:39;9.05;;;4.30;;
57627;SDS011;43451;49.060;10.616;2024-03-25T06:11:04;6.45;;;3.97;;
57627;SDS011;43451;49.060;10.616;2024-03-25T06:13:30;7.45;;;4.43;;
57627;SDS011;43451;49.060;10.616;2024-03-25T06:15:55;8.32;;;3.75;;
57627;SDS011;43451;49.060;10.616;2024-03-25T06:18:21;7.13;;;3.38;;
57627;SDS011;43451;49.060;10.616;2024-03-25T06:20:46;6.20;;;3.95;;
57627;SDS011;43451;49.060;10.616;2024-03-25T06:23:25;6.88;;;4.13;;
57627;SDS011;43451;49.060;10.616;2024-03-25T06:25:52;8.35;;;3.95;;
57627;SDS011;43451;49.060;10.616;2024-03-25T06:28:18;7.80;;;4.03;;
57627;SDS011;43451;49.060;10.616;2024-03-25T06:30:47;7.15;;;3.80;;
57627;SDS011;43451;49.060;10.616;2024-03-25T06:33:32;8.30;;;3.53;;
57627;SDS011;43451;49.060;10.616;2024-03-25T06:36:16;7.13;;;3.42;;
57627;SDS011;43451;49.060;10.616;2024-03-25T06:38:42;7.15;;;4.13;;
57627;SDS011;43451;49.060;10.616;2024-03-25T06:41:08;5.50;;;3.20;;
57627;SDS011;43451;49.060;10.616;2024-03-25T06:43:34;5.93;;;3.50;;
57627;SDS011;43451;49.060;10.616;2024-03-25T06:46:00;6.68;;;3.35;;
57627;SDS011;43451;49.060;10.616;2024-03-25T06:48:25;7.75;;;3.90;;
57627;SDS011;43451;49.060;10.616;2024-03-25T06:50:57;8.40;;;3.78;;
57627;SDS011;43451;49.060;10.616;2024-03-25T06:53:24;8.05;;;3.97;;
57627;SDS011;43451;49.060;10.616;2024-03-25T06:55:54;7.53;;;3.65;;
57627;SDS011;43451;49.060;10.616;2024-03-25T06:58:21;7.00;;;3.83;;
57627;SDS011;43451;49.060;10.616;2024-03-25T07:00:47;7.80;;;3.70;;
57627;SDS011;43451;49.060;10.616;2024-03-25T07:03:17;7.22;;;3.63;;
57627;SDS011;43451;49.060;10.616;2024-03-25T07:05:47;7.28;;;3.60;;
57627;SDS011;43451;49.060;10.616;2024-03-25T07:08:14;7.40;;;4.00;;
57627;SDS011;43451;49.060;10.616;2024-03-25T07:10:43;6.72;;;3.50;;
57627;SDS011;43451;49.060;10.616;2024-03-25T07:13:09;6.80;;;4.18;;
57627;SDS011;43451;49.060;10.616;2024-03-25T07:15:36;9.35;;;3.95;;
57627;SDS011;43451;49.060;10.616;2024-03-25T07:18:01;9.93;;;4.10;;
57627;SDS011;43451;49.060;10.616;2024-03-25T07:20:27;6.80;;;3.83;;
57627;SDS011;43451;49.060;10.616;2024-03-25T07:22:53;7.95;;;3.88;;
57627;SDS011;43451;49.060;10.616;2024-03-25T07:25:21;8.63;;;3.97;;
57627;SDS011;43451;49.060;10.616;2024-03-25T07:27:46;8.80;;;4.15;;
57627;SDS011;43451;49.060;10.616;2024-03-25T07:30:12;7.63;;;3.80;;
57627;SDS011;43451;49.060;10.616;2024-03-25T07:32:39;6.20;;;3.90;;
57627;SDS011;43451;49.060;10.616;2024-03-25T07:35:04;9.55;;;3.83;;
57627;SDS011;43451;49.060;10.616;2024-03-25T07:37:30;6.72;;;3.80;;
57627;SDS011;43451;49.060;10.616;2024-03-25T07:39:56;9.30;;;4.30;;
57627;SDS011;43451;49.060;10.616;2024-03-25T07:42:21;8.43;;;3.78;;
57627;SDS011;43451;49.060;10.616;2024-03-25T07:44:47;6.30;;;3.67;;
57627;SDS011;43451;49.060;10.616;2024-03-25T07:47:13;7.43;;;4.22;;
57627;SDS011;43451;49.060;10.616;2024-03-25T07:49:40;8.33;;;3.60;;
57627;SDS011;43451;49.060;10.616;2024-03-25T07:52:06;7.38;;;3.88;;
57627;SDS011;43451;49.060;10.616;2024-03-25T07:54:32;5.25;;;3.80;;
57627;SDS011;43451;49.060;10.616;2024-03-25T07:56:57;7.35;;;3.70;;
57627;SDS011;43451;49.060;10.616;2024-03-25T07:59:23;9.20;;;3.85;;
57627;SDS011;43451;49.060;10.616;2024-03-25T08:01:49;5.47;;;3.17;;
57627;SDS011;43451;49.060;10.616;2024-03-25T08:04:14;5.18;;;3.30;;
57627;SDS011;43451;49.060;10.616;2024-03-25T08:06:40;7.22;;;3.60;;
57627;SDS011;43451;49.060;10.616;2024-03-25T08:09:05;8.32;;;3.20;;
57627;SDS011;43451;49.060;10.616;2024-03-25T08:11:31;9.00;;;3.35;;
57627;SDS011;43451;49.060;10.616;2024-03-25T08:13:58;3.80;;;2.25;;
57627;SDS011;43451;49.060;10.616;2024-03-25T08:16:23;4.75;;;2.50;;
57627;SDS011;43451;49.060;10.616;2024-03-25T08:18:49;4.88;;;2.33;;
57627;SDS011;43451;49.060;10.616;2024-03-25T08:21:16;5.43;;;2.40;;
57627;SDS011;43451;49.060;10.616;2024-03-25T08:23:44;7.20;;;2.40;;
57627;SDS011;43451;49.060;10.616;2024-03-25T08:26:10;4.97;;;2.38;;
57627;SDS011;43451;49.060;10.616;2024-03-25T08:28:37;5.03;;;2.20;;
57627;SDS011;43451;49.060;10.616;2024-03-25T08:31:03;4.38;;;2.60;;
57627;SDS011;43451;49.060;10.616;2024-03-25T08:33:29;5.82;;;2.40;;
57627;SDS011;43451;49.060;10.616;2024-03-25T08:35:55;4.65;;;2.40;;
57627;SDS011;43451;49.060;10.616;2024-03-25T08:38:20;3.97;;;2.03;;
57627;SDS011;43451;49.060;10.616;2024-03-25T08:40:46;4.72;;;2.20;;
57627;SDS011;43451;49.060;10.616;2024-03-25T08:43:12;4.63;;;2.47;;
57627;SDS011;43451;49.060;10.616;2024-03-25T08:45:37;4.47;;;2.45;;
57627;SDS011;43451;49.060;10.616;2024-03-25T08:48:03;9.05;;;2.50;;
57627;SDS011;43451;49.060;10.616;2024-03-25T08:50:29;4.68;;;2.35;;
57627;SDS011;43451;49.060;10.616;2024-03-25T08:55:22;4.32;;;2.45;;
57627;SDS011;43451;49.060;10.616;2024-03-25T08:57:47;5.22;;;2.60;;
57627;SDS011;43451;49.060;10.616;2024-03-25T09:00:13;4.15;;;2.63;;
57627;SDS011;43451;49.060;10.616;2024-03-25T09:02:39;5.88;;;2.70;;
57627;SDS011;43451;49.060;10.616;2024-03-25T09:05:05;6.72;;;2.38;;
57627;SDS011;43451;49.060;10.616;2024-03-25T09:07:32;4.70;;;2.60;;
57627;SDS011;43451;49.060;10.616;2024-03-25T09:09:57;4.38;;;2.53;;
57627;SDS011;43451;49.060;10.616;2024-03-25T09:12:41;3.42;;;2.13;;
57627;SDS011;43451;49.060;10.616;2024-03-25T09:15:07;6.07;;;2.63;;
57627;SDS011;43451;49.060;10.616;2024-03-25T09:17:35;6.20;;;2.47;;
57627;SDS011;43451;49.060;10.616;2024-03-25T09:20:01;5.68;;;2.65;;
57627;SDS011;43451;49.060;10.616;2024-03-25T09:22:29;5.00;;;2.45;;
57627;SDS011;43451;49.060;10.616;2024-03-25T09:24:55;5.30;;;2.50;;
57627;SDS011;43451;49.060;10.616;2024-03-25T09:27:20;4.35;;;2.25;;
57627;SDS011;43451;49.060;10.616;2024-03-25T09:29:56;3.58;;;2.33;;
57627;SDS011;43451;49.060;10.616;2024-03-25T09:32:27;4.13;;;1.90;;
57627;SDS011;43451;49.060;10.616;2024-03-25T09:34:58;4.15;;;2.60;;
57627;SDS011;43451;49.060;10.616;2024-03-25T09:37:24;4.18;;;2.55;;
57627;SDS011;43451;49.060;10.616;2024-03-25T09:39:49;6.53;;;2.40;;
57627;SDS011;43451;49.060;10.616;2024-03-25T09:42:15;5.25;;;2.42;;
57627;SDS011;43451;49.060;10.616;2024-03-25T09:44:50;6.53;;;2.60;;
57627;SDS011;43451;49.060;10.616;2024-03-25T09:47:16;4.57;;;2.40;;
57627;SDS011;43451;49.060;10.616;2024-03-25T09:49:42;4.78;;;2.63;;
57627;SDS011;43451;49.060;10.616;2024-03-25T09:52:08;2.95;;;2.22;;
57627;SDS011;43451;49.060;10.616;2024-03-25T09:54:34;5.43;;;2.20;;
57627;SDS011;43451;49.060;10.616;2024-03-25T09:57:00;4.88;;;2.40;;
57627;SDS011;43451;49.060;10.616;2024-03-25T09:59:27;4.23;;;2.40;;
57627;SDS011;43451;49.060;10.616;2024-03-25T10:01:53;3.47;;;2.40;;
57627;SDS011;43451;49.060;10.616;2024-03-25T10:04:19;6.53;;;2.50;;
57627;SDS011;43451;49.060;10.616;2024-03-25T10:06:45;3.78;;;2.17;;
57627;SDS011;43451;49.060;10.616;2024-03-25T10:09:11;5.28;;;2.83;;
57627;SDS011;43451;49.060;10.616;2024-03-25T10:11:36;3.67;;;2.60;;
57627;SDS011;43451;49.060;10.616;2024-03-25T10:14:02;3.80;;;2.47;;
57627;SDS011;43451;49.060;10.616;2024-03-25T10:16:27;4.93;;;2.50;;
57627;SDS011;43451;49.060;10.616;2024-03-25T10:18:53;4.28;;;2.40;;
57627;SDS011;43451;49.060;10.616;2024-03-25T10:21:20;4.80;;;2.13;;
57627;SDS011;43451;49.060;10.616;2024-03-25T10:23:46;7.18;;;2.40;;
57627;SDS011;43451;49.060;10.616;2024-03-25T10:26:28;4.15;;;2.20;;
57627;SDS011;43451;49.060;10.616;2024-03-25T10:29:03;3.33;;;1.98;;
57627;SDS011;43451;49.060;10.616;2024-03-25T10:31:31;5.05;;;2.10;;
57627;SDS011;43451;49.060;10.616;2024-03-25T10:33:58;4.25;;;2.03;;
57627;SDS011;43451;49.060;10.616;2024-03-25T10:36:24;2.30;;;1.73;;
57627;SDS011;43451;49.060;10.616;2024-03-25T10:38:57;2.50;;;1.80;;
57627;SDS011;43451;49.060;10.616;2024-03-25T10:41:32;5.80;;;1.95;;
57627;SDS011;43451;49.060;10.616;2024-03-25T10:46:29;4.53;;;1.65;;
57627;SDS011;43451;49.060;10.616;2024-03-25T10:49:01;5.85;;;2.10;;
57627;SDS011;43451;49.060;10.616;2024-03-25T10:51:29;1.65;;;1.50;;
57627;SDS011;43451;49.060;10.616;2024-03-25T10:53:56;2.63;;;1.70;;
57627;SDS011;43451;49.060;10.616;2024-03-25T10:56:24;3.45;;;1.60;;
57627;SDS011;43451;49.060;10.616;2024-03-25T10:58:50;4.55;;;2.30;;
57627;SDS011;43451;49.060;10.616;2024-03-25T11:01:17;3.17;;;1.70;;
57627;SDS011;43451;49.060;10.616;2024-03-25T11:03:44;3.38;;;1.98;;
57627;SDS011;43451;49.060;10.616;2024-03-25T11:08:37;4.43;;;1.80;;
57627;SDS011;43451;49.060;10.616;2024-03-25T11:11:04;3.65;;;1.80;;
57627;SDS011;43451;49.060;10.616;2024-03-25T11:13:31;3.45;;;2.17;;
57627;SDS011;43451;49.060;10.616;2024-03-25T11:15:56;2.47;;;1.70;;
57627;SDS011;43451;49.060;10.616;2024-03-25T11:18:24;4.07;;;2.10;;
57627;SDS011;43451;49.060;10.616;2024-03-25T11:21:03;3.95;;;1.88;;
57627;SDS011;43451;49.060;10.616;2024-03-25T11:23:43;3.10;;;1.80;;
57627;SDS011;43451;49.060;10.616;2024-03-25T11:26:19;6.28;;;2.00;;
57627;SDS011;43451;49.060;10.616;2024-03-25T11:28:58;5.20;;;1.95;;
57627;SDS011;43451;49.060;10.616;2024-03-25T11:31:25;4.72;;;1.90;;
57627;SDS011;43451;49.060;10.616;2024-03-25T11:33:51;4.57;;;1.90;;
57627;SDS011;43451;49.060;10.616;2024-03-25T11:36:17;3.63;;;1.90;;
57627;SDS011;43451;49.060;10.616;2024-03-25T11:38:44;4.75;;;1.90;;
57627;SDS011;43451;49.060;10.616;2024-03-25T11:41:11;5.97;;;2.00;;
57627;SDS011;43451;49.060;10.616;2024-03-25T11:43:37;2.17;;;1.73;;
57627;SDS011;43451;49.060;10.616;2024-03-25T11:46:03;2.78;;;1.60;;
57627;SDS011;43451;49.060;10.616;2024-03-25T11:48:29;3.00;;;1.77;;
57627;SDS011;43451;49.060;10.616;2024-03-25T11:50:54;2.92;;;1.80;;
57627;SDS011;43451;49.060;10.616;2024-03-25T11:53:20;3.67;;;1.90;;
57627;SDS011;43451;49.060;10.616;2024-03-25T11:55:46;2.53;;;1.75;;
57627;SDS011;43451;49.060;10.616;2024-03-25T11:58:13;6.63;;;2.17;;
57627;SDS011;43451;49.060;10.616;2024-03-25T12:00:46;2.10;;;1.65;;
57627;SDS011;43451;49.060;10.616;2024-03-25T12:03:15;3.65;;;1.83;;
57627;SDS011;43451;49.060;10.616;2024-03-25T12:05:43;2.70;;;1.80;;
57627;SDS011;43451;49.060;10.616;2024-03-25T12:08:09;5.07;;;1.73;;
57627;SDS011;43451;49.060;10.616;2024-03-25T12:10:36;3.63;;;1.90;;
57627;SDS011;43451;49.060;10.616;2024-03-25T12:13:21;3.22;;;1.70;;
57627;SDS011;43451;49.060;10.616;2024-03-25T12:15:47;2.97;;;1.85;;
57627;SDS011;43451;49.060;10.616;2024-03-25T12:18:13;2.83;;;1.70;;
57627;SDS011;43451;49.060;10.616;2024-03-25T12:20:39;2.10;;;1.70;;
57627;SDS011;43451;49.060;10.616;2024-03-25T12:23:05;3.30;;;1.70;;
57627;SDS011;43451;49.060;10.616;2024-03-25T12:25:31;3.95;;;1.70;;
57627;SDS011;43451;49.060;10.616;2024-03-25T12:27:57;3.28;;;1.65;;
57627;SDS011;43451;49.060;10.616;2024-03-25T12:30:23;5.38;;;1.80;;
57627;SDS011;43451;49.060;10.616;2024-03-25T12:32:48;3.55;;;1.90;;
57627;SDS011;43451;49.060;10.616;2024-03-25T12:35:16;3.17;;;1.70;;
57627;SDS011;43451;49.060;10.616;2024-03-25T12:37:43;8.55;;;2.00;;
57627;SDS011;43451;49.060;10.616;2024-03-25T12:40:12;3.47;;;1.90;;
57627;SDS011;43451;49.060;10.616;2024-03-25T12:42:58;10.00;;;2.07;;
57627;SDS011;43451;49.060;10.616;2024-03-25T12:45:24;2.45;;;1.70;;
57627;SDS011;43451;49.060;10.616;2024-03-25T12:47:50;2.78;;;1.70;;
57627;SDS011;43451;49.060;10.616;2024-03-25T12:50:16;2.30;;;1.80;;
57627;SDS011;43451;49.060;10.616;2024-03-25T12:52:41;3.58;;;1.90;;
57627;SDS011;43451;49.060;10.616;2024-03-25T12:55:07;3.35;;;1.90;;
57627;SDS011;43451;49.060;10.616;2024-03-25T12:57:32;3.63;;;1.70;;
57627;SDS011;43451;49.060;10.616;2024-03-25T12:59:58;1.98;;;1.77;;
57627;SDS011;43451;49.060;10.616;2024-03-25T13:02:23;2.50;;;1.73;;
57627;SDS011;43451;49.060;10.616;2024-03-25T13:04:49;3.15;;;1.70;;
57627;SDS011;43451;49.060;10.616;2024-03-25T13:07:15;3.05;;;1.88;;
57627;SDS011;43451;49.060;10.616;2024-03-25T13:09:41;2.85;;;2.00;;
57627;SDS011;43451;49.060;10.616;2024-03-25T13:12:06;4.60;;;1.63;;
57627;SDS011;43451;49.060;10.616;2024-03-25T13:14:32;2.38;;;1.77;;
57627;SDS011;43451;49.060;10.616;2024-03-25T13:16:57;3.75;;;1.80;;
57627;SDS011;43451;49.060;10.616;2024-03-25T13:19:23;4.15;;;1.80;;
57627;SDS011;43451;49.060;10.616;2024-03-25T13:21:49;3.28;;;1.70;;
57627;SDS011;43451;49.060;10.616;2024-03-25T13:24:14;4.88;;;1.65;;
57627;SDS011;43451;49.060;10.616;2024-03-25T13:26:40;3.78;;;1.80;;
57627;SDS011;43451;49.060;10.616;2024-03-25T13:29:06;2.95;;;1.67;;
57627;SDS011;43451;49.060;10.616;2024-03-25T13:31:32;3.15;;;2.00;;
57627;SDS011;43451;49.060;10.616;2024-03-25T13:33:58;3.70;;;1.80;;
57627;SDS011;43451;49.060;10.616;2024-03-25T13:36:24;3.00;;;1.90;;
57627;SDS011;43451;49.060;10.616;2024-03-25T13:38:49;2.67;;;1.80;;
57627;SDS011;43451;49.060;10.616;2024-03-25T13:41:15;2.63;;;1.70;;
57627;SDS011;43451;49.060;10.616;2024-03-25T13:46:08;3.15;;;1.98;;
57627;SDS011;43451;49.060;10.616;2024-03-25T13:48:34;3.28;;;2.00;;
57627;SDS011;43451;49.060;10.616;2024-03-25T13:51:00;4.03;;;1.85;;
57627;SDS011;43451;49.060;10.616;2024-03-25T13:53:25;2.88;;;1.90;;
57627;SDS011;43451;49.060;10.616;2024-03-25T13:55:51;2.50;;;1.80;;
57627;SDS011;43451;49.060;10.616;2024-03-25T13:58:17;2.50;;;1.80;;
57627;SDS011;43451;49.060;10.616;2024-03-25T14:00:43;2.83;;;1.92;;
57627;SDS011;43451;49.060;10.616;2024-03-25T14:03:08;3.28;;;1.85;;
57627;SDS011;43451;49.060;10.616;2024-03-25T14:05:34;2.10;;;1.80;;
57627;SDS011;43451;49.060;10.616;2024-03-25T14:07:59;2.80;;;1.92;;
57627;SDS011;43451;49.060;10.616;2024-03-25T14:10:25;4.45;;;2.30;;
57627;SDS011;43451;49.060;10.616;2024-03-25T14:12:51;3.95;;;2.00;;
57627;SDS011;43451;49.060;10.616;2024-03-25T14:15:16;2.78;;;1.90;;
57627;SDS011;43451;49.060;10.616;2024-03-25T14:17:42;4.68;;;2.13;;
57627;SDS011;43451;49.060;10.616;2024-03-25T14:20:07;2.67;;;1.90;;
57627;SDS011;43451;49.060;10.616;2024-03-25T14:22:33;2.80;;;2.10;;
57627;SDS011;43451;49.060;10.616;2024-03-25T14:24:59;2.95;;;1.98;;
57627;SDS011;43451;49.060;10.616;2024-03-25T14:27:25;3.08;;;2.10;;
57627;SDS011;43451;49.060;10.616;2024-03-25T14:29:51;2.20;;;1.90;;
57627;SDS011;43451;49.060;10.616;2024-03-25T14:32:21;2.00;;;1.83;;
57627;SDS011;43451;49.060;10.616;2024-03-25T14:34:47;3.50;;;1.65;;
57627;SDS011;43451;49.060;10.616;2024-03-25T14:37:13;3.25;;;2.08;;
57627;SDS011;43451;49.060;10.616;2024-03-25T14:39:39;2.13;;;1.90;;